createdAt,value
2018-11-04T00:01:08.196Z,4.1
2018-11-04T00:16:06.054Z,4.8
2018-11-04T00:31:02.457Z,3.4
2018-11-04T00:45:33.874Z,3.2
2018-11-04T01:00:37.043Z,3.9
2018-11-04T01:15:46.876Z,3.4
2018-11-04T01:31:04.344Z,3.7
2018-11-04T01:46:30.394Z,2.9
2018-11-04T02:01:02.200Z,3.7
2018-11-04T02:16:06.384Z,4.2
2018-11-04T02:31:23.794Z,3.1
2018-11-04T02:46:26.484Z,3
2018-11-04T03:00:35.325Z,3
2018-11-04T03:16:27.555Z,3.2
2018-11-04T03:30:34.452Z,3
2018-11-04T03:45:41.711Z,2.9
2018-11-04T04:01:19.878Z,3.3
2018-11-04T04:16:32.623Z,2.9
2018-11-04T04:31:30.526Z,2.8
2018-11-04T04:46:14.654Z,3.1
2018-11-04T05:01:10.228Z,3.7
2018-11-04T05:16:14.219Z,2.9
2018-11-04T05:31:17.566Z,2.8
2018-11-04T05:46:24.361Z,2.9
2018-11-04T06:15:42.862Z,2.8
2018-11-04T06:30:59.893Z,2.9
2018-11-04T06:45:58.587Z,2.9
2018-11-04T07:01:01.929Z,4.5
2018-11-04T07:16:08.736Z,8.4
2018-11-04T07:30:50.471Z,8.6
2018-11-04T07:46:05.362Z,9
2018-11-04T08:01:13.441Z,9.1
2018-11-04T08:16:16.696Z,11.5
2018-11-04T08:31:10.007Z,8.2
2018-11-04T08:46:15.307Z,6.9
2018-11-04T09:01:25.102Z,9.2
2018-11-04T09:16:11.552Z,14
2018-11-04T09:30:43.042Z,31
2018-11-04T09:46:03.891Z,34.5
2018-11-04T10:01:05.397Z,58
2018-11-04T10:15:53.042Z,74.4
2018-11-04T10:31:00.580Z,39.3
2018-11-04T10:46:22.849Z,62.9
2018-11-04T11:01:42.609Z,30.2
2018-11-04T11:15:52.809Z,21.4
2018-11-04T11:30:49.920Z,14.7
2018-11-04T11:45:56.069Z,13.1
2018-11-04T12:00:52.306Z,10
2018-11-04T12:16:07.010Z,12.3
2018-11-04T12:31:29.812Z,12.5
2018-11-04T12:46:48.822Z,8
2018-11-04T13:00:59.505Z,8.7
2018-11-04T13:16:20.696Z,8.3
2018-11-04T13:31:49.830Z,11.8
2018-11-04T13:46:10.952Z,10.8
2018-11-04T14:01:42.112Z,8.6
2018-11-04T14:16:12.807Z,11.8
2018-11-04T14:31:41.481Z,14.2
2018-11-04T14:46:10.431Z,20.4
2018-11-04T15:01:37.722Z,20.2
2018-11-04T15:16:01.215Z,18.8
2018-11-04T15:31:21.883Z,15.4
2018-11-04T15:46:52.784Z,16
2018-11-04T16:01:06.942Z,15.8
2018-11-04T16:16:34.954Z,12.9
2018-11-04T16:31:00.013Z,12.3
2018-11-04T16:46:30.605Z,10.6
2018-11-04T17:01:23.457Z,11
2018-11-04T17:16:44.988Z,11
2018-11-04T17:31:02.247Z,9.9
2018-11-04T17:46:11.684Z,12.5
2018-11-04T18:01:22.028Z,9.9
2018-11-04T18:16:39.510Z,9.8
2018-11-04T18:31:55.676Z,10.7
2018-11-04T18:46:48.832Z,9.7
2018-11-04T19:01:05.487Z,12.1
2018-11-04T19:16:29.634Z,7.6
2018-11-04T19:32:00.136Z,11.2
2018-11-04T19:47:01.652Z,9.6
2018-11-04T20:01:20.697Z,10
2018-11-04T20:16:42.300Z,9.9
2018-11-04T20:32:07.145Z,8.9
2018-11-04T20:46:34.388Z,10.1
2018-11-04T21:02:00.377Z,11.3
2018-11-04T21:16:37.545Z,8.1
2018-11-04T21:31:28.708Z,9.6
2018-11-04T21:47:08.454Z,8.3
2018-11-04T22:01:27.666Z,7.2
2018-11-04T22:16:49.908Z,8.5
2018-11-04T22:32:09.797Z,6.1
2018-11-04T22:46:41.609Z,4.8
2018-11-04T23:02:11.703Z,5.8
2018-11-04T23:16:20.730Z,6.4
2018-11-04T23:32:18.770Z,4.2
2018-11-04T23:47:14.921Z,3.7
